sensor_id;sensor_type;location;lat;lon;timestamp;pressure;altitude;pressure_sealevel;temperature
11240;BMP180;5677;48.488;13.436;2023-08-30T00:01:08;96999.00;;;20.70
11240;BMP180;5677;48.488;13.436;2023-08-30T00:03:36;97001.00;;;20.70
11240;BMP180;5677;48.488;13.436;2023-08-30T00:06:04;96999.00;;;20.70
11240;BMP180;5677;48.488;13.436;2023-08-30T00:08:32;96996.00;;;20.70
11240;BMP180;5677;48.488;13.436;2023-08-30T00:10:59;97003.00;;;20.70
11240;BMP180;5677;48.488;13.436;2023-08-30T00:13:29;97004.00;;;20.70
11240;BMP180;5677;48.488;13.436;2023-08-30T00:15:56;97012.00;;;20.70
11240;BMP180;5677;48.488;13.436;2023-08-30T00:18:23;97002.00;;;20.70
11240;BMP180;5677;48.488;13.436;2023-08-30T00:20:52;97008.00;;;20.70
11240;BMP180;5677;48.488;13.436;2023-08-30T00:23:19;97002.00;;;20.70
11240;BMP180;5677;48.488;13.436;2023-08-30T00:25:45;97009.00;;;20.70
11240;BMP180;5677;48.488;13.436;2023-08-30T00:28:12;97008.00;;;20.70
11240;BMP180;5677;48.488;13.436;2023-08-30T00:30:39;97017.00;;;20.70
11240;BMP180;5677;48.488;13.436;2023-08-30T00:33:06;97014.00;;;20.70
11240;BMP180;5677;48.488;13.436;2023-08-30T00:35:33;97013.00;;;20.70
11240;BMP180;5677;48.488;13.436;2023-08-30T00:38:02;97014.00;;;20.70
11240;BMP180;5677;48.488;13.436;2023-08-30T00:40:29;97015.00;;;20.70
11240;BMP180;5677;48.488;13.436;2023-08-30T00:43:03;97001.00;;;20.70
11240;BMP180;5677;48.488;13.436;2023-08-30T00:45:30;97010.00;;;20.70
11240;BMP180;5677;48.488;13.436;2023-08-30T00:47:57;97013.00;;;20.70
11240;BMP180;5677;48.488;13.436;2023-08-30T00:50:24;97006.00;;;20.70
11240;BMP180;5677;48.488;13.436;2023-08-30T00:52:51;97007.00;;;20.70
11240;BMP180;5677;48.488;13.436;2023-08-30T00:55:20;97012.00;;;20.70
11240;BMP180;5677;48.488;13.436;2023-08-30T00:57:47;97010.00;;;20.70
11240;BMP180;5677;48.488;13.436;2023-08-30T01:00:14;97008.00;;;20.70
11240;BMP180;5677;48.488;13.436;2023-08-30T01:02:41;97010.00;;;20.70
11240;BMP180;5677;48.488;13.436;2023-08-30T01:05:09;97009.00;;;20.70
11240;BMP180;5677;48.488;13.436;2023-08-30T01:07:36;97009.00;;;20.70
11240;BMP180;5677;48.488;13.436;2023-08-30T01:10:04;97006.00;;;20.70
11240;BMP180;5677;48.488;13.436;2023-08-30T01:12:40;96997.00;;;20.70
11240;BMP180;5677;48.488;13.436;2023-08-30T01:15:15;97009.00;;;20.70
11240;BMP180;5677;48.488;13.436;2023-08-30T01:17:43;97012.00;;;20.70
11240;BMP180;5677;48.488;13.436;2023-08-30T01:20:14;97014.00;;;20.70
11240;BMP180;5677;48.488;13.436;2023-08-30T01:22:53;97011.00;;;20.70
11240;BMP180;5677;48.488;13.436;2023-08-30T01:25:34;97007.00;;;20.70
11240;BMP180;5677;48.488;13.436;2023-08-30T01:28:07;97003.00;;;20.70
11240;BMP180;5677;48.488;13.436;2023-08-30T01:30:37;97011.00;;;20.70
11240;BMP180;5677;48.488;13.436;2023-08-30T01:33:07;97003.00;;;20.70
11240;BMP180;5677;48.488;13.436;2023-08-30T01:35:35;97003.00;;;20.70
11240;BMP180;5677;48.488;13.436;2023-08-30T01:38:04;97003.00;;;20.70
11240;BMP180;5677;48.488;13.436;2023-08-30T01:40:35;97007.00;;;20.70
11240;BMP180;5677;48.488;13.436;2023-08-30T01:43:07;97008.00;;;20.70
11240;BMP180;5677;48.488;13.436;2023-08-30T01:45:36;97002.00;;;20.70
11240;BMP180;5677;48.488;13.436;2023-08-30T01:48:08;97009.00;;;20.70
11240;BMP180;5677;48.488;13.436;2023-08-30T01:50:36;97009.00;;;20.70
11240;BMP180;5677;48.488;13.436;2023-08-30T01:53:05;97014.00;;;20.70
11240;BMP180;5677;48.488;13.436;2023-08-30T01:55:34;97009.00;;;20.70
11240;BMP180;5677;48.488;13.436;2023-08-30T01:58:01;97015.00;;;20.70
11240;BMP180;5677;48.488;13.436;2023-08-30T02:00:29;97017.00;;;20.70
11240;BMP180;5677;48.488;13.436;2023-08-30T02:02:56;97017.00;;;20.70
11240;BMP180;5677;48.488;13.436;2023-08-30T02:05:23;97013.00;;;20.70
11240;BMP180;5677;48.488;13.436;2023-08-30T02:07:58;97013.00;;;20.70
11240;BMP180;5677;48.488;13.436;2023-08-30T02:10:34;97013.00;;;20.70
11240;BMP180;5677;48.488;13.436;2023-08-30T02:13:04;97019.00;;;20.70
11240;BMP180;5677;48.488;13.436;2023-08-30T02:15:36;97012.00;;;20.70
11240;BMP180;5677;48.488;13.436;2023-08-30T02:18:05;97016.00;;;20.70
11240;BMP180;5677;48.488;13.436;2023-08-30T02:20:32;97022.00;;;20.70
11240;BMP180;5677;48.488;13.436;2023-08-30T02:22:59;97018.00;;;20.70
11240;BMP180;5677;48.488;13.436;2023-08-30T02:25:26;97021.00;;;20.70
11240;BMP180;5677;48.488;13.436;2023-08-30T02:27:53;97025.00;;;20.70
11240;BMP180;5677;48.488;13.436;2023-08-30T02:30:20;97024.00;;;20.70
11240;BMP180;5677;48.488;13.436;2023-08-30T02:32:48;97026.00;;;20.70
11240;BMP180;5677;48.488;13.436;2023-08-30T02:35:16;97029.00;;;20.60
11240;BMP180;5677;48.488;13.436;2023-08-30T02:37:43;97026.00;;;20.70
11240;BMP180;5677;48.488;13.436;2023-08-30T02:40:11;97025.00;;;20.70
11240;BMP180;5677;48.488;13.436;2023-08-30T02:42:38;97022.00;;;20.60
11240;BMP180;5677;48.488;13.436;2023-08-30T02:45:06;97019.00;;;20.60
11240;BMP180;5677;48.488;13.436;2023-08-30T02:47:33;97025.00;;;20.70
11240;BMP180;5677;48.488;13.436;2023-08-30T02:50:02;97022.00;;;20.60
11240;BMP180;5677;48.488;13.436;2023-08-30T02:52:29;97023.00;;;20.60
11240;BMP180;5677;48.488;13.436;2023-08-30T02:54:56;97018.00;;;20.60
11240;BMP180;5677;48.488;13.436;2023-08-30T02:57:23;97024.00;;;20.60
11240;BMP180;5677;48.488;13.436;2023-08-30T02:59:50;97025.00;;;20.60
11240;BMP180;5677;48.488;13.436;2023-08-30T03:02:17;97028.00;;;20.60
11240;BMP180;5677;48.488;13.436;2023-08-30T03:04:44;97018.00;;;20.60
11240;BMP180;5677;48.488;13.436;2023-08-30T03:07:12;97027.00;;;20.60
11240;BMP180;5677;48.488;13.436;2023-08-30T03:09:39;97026.00;;;20.60
11240;BMP180;5677;48.488;13.436;2023-08-30T03:12:07;97025.00;;;20.60
11240;BMP180;5677;48.488;13.436;2023-08-30T03:14:34;97025.00;;;20.60
11240;BMP180;5677;48.488;13.436;2023-08-30T03:17:00;97022.00;;;20.60
11240;BMP180;5677;48.488;13.436;2023-08-30T03:19:28;97022.00;;;20.60
11240;BMP180;5677;48.488;13.436;2023-08-30T03:21:55;97017.00;;;20.60
11240;BMP180;5677;48.488;13.436;2023-08-30T03:24:23;97017.00;;;20.60
11240;BMP180;5677;48.488;13.436;2023-08-30T03:26:50;97020.00;;;20.60
11240;BMP180;5677;48.488;13.436;2023-08-30T03:29:17;97015.00;;;20.60
11240;BMP180;5677;48.488;13.436;2023-08-30T03:31:44;97013.00;;;20.60
11240;BMP180;5677;48.488;13.436;2023-08-30T03:34:11;97020.00;;;20.60
11240;BMP180;5677;48.488;13.436;2023-08-30T03:36:38;97027.00;;;20.60
11240;BMP180;5677;48.488;13.436;2023-08-30T03:39:05;97019.00;;;20.60
11240;BMP180;5677;48.488;13.436;2023-08-30T03:41:33;97025.00;;;20.60
11240;BMP180;5677;48.488;13.436;2023-08-30T03:44:00;97029.00;;;20.60
11240;BMP180;5677;48.488;13.436;2023-08-30T03:46:27;97028.00;;;20.60
11240;BMP180;5677;48.488;13.436;2023-08-30T03:48:54;97030.00;;;20.60
11240;BMP180;5677;48.488;13.436;2023-08-30T03:51:22;97032.00;;;20.60
11240;BMP180;5677;48.488;13.436;2023-08-30T03:53:49;97039.00;;;20.60
11240;BMP180;5677;48.488;13.436;2023-08-30T03:56:16;97035.00;;;20.60
11240;BMP180;5677;48.488;13.436;2023-08-30T03:58:45;97034.00;;;20.60
11240;BMP180;5677;48.488;13.436;2023-08-30T04:01:11;97035.00;;;20.60
11240;BMP180;5677;48.488;13.436;2023-08-30T04:03:38;97039.00;;;20.60
11240;BMP180;5677;48.488;13.436;2023-08-30T04:06:05;97033.00;;;20.60
11240;BMP180;5677;48.488;13.436;2023-08-30T04:08:32;97033.00;;;20.60
11240;BMP180;5677;48.488;13.436;2023-08-30T04:10:59;97030.00;;;20.60
11240;BMP180;5677;48.488;13.436;2023-08-30T04:13:26;97031.00;;;20.60
11240;BMP180;5677;48.488;13.436;2023-08-30T04:15:55;97034.00;;;20.60
11240;BMP180;5677;48.488;13.436;2023-08-30T04:18:24;97029.00;;;20.60
11240;BMP180;5677;48.488;13.436;2023-08-30T04:20:51;97038.00;;;20.60
11240;BMP180;5677;48.488;13.436;2023-08-30T04:23:18;97031.00;;;20.60
11240;BMP180;5677;48.488;13.436;2023-08-30T04:25:45;97035.00;;;20.60
11240;BMP180;5677;48.488;13.436;2023-08-30T04:28:12;97035.00;;;20.60
11240;BMP180;5677;48.488;13.436;2023-08-30T04:30:39;97040.00;;;20.60
11240;BMP180;5677;48.488;13.436;2023-08-30T04:33:07;97040.00;;;20.60
11240;BMP180;5677;48.488;13.436;2023-08-30T04:35:34;97038.00;;;20.60
11240;BMP180;5677;48.488;13.436;2023-08-30T04:38:02;97032.00;;;20.60
11240;BMP180;5677;48.488;13.436;2023-08-30T04:40:29;97038.00;;;20.60
11240;BMP180;5677;48.488;13.436;2023-08-30T04:42:57;97042.00;;;20.60
11240;BMP180;5677;48.488;13.436;2023-08-30T04:45:25;97043.00;;;20.60
11240;BMP180;5677;48.488;13.436;2023-08-30T04:47:51;97033.00;;;20.60
11240;BMP180;5677;48.488;13.436;2023-08-30T04:50:20;97042.00;;;20.60
11240;BMP180;5677;48.488;13.436;2023-08-30T04:52:47;97042.00;;;20.60
11240;BMP180;5677;48.488;13.436;2023-08-30T04:55:14;97046.00;;;20.60
11240;BMP180;5677;48.488;13.436;2023-08-30T04:57:41;97048.00;;;20.60
11240;BMP180;5677;48.488;13.436;2023-08-30T05:00:11;97049.00;;;20.60
11240;BMP180;5677;48.488;13.436;2023-08-30T05:02:38;97053.00;;;20.60
11240;BMP180;5677;48.488;13.436;2023-08-30T05:05:07;97042.00;;;20.60
11240;BMP180;5677;48.488;13.436;2023-08-30T05:07:35;97042.00;;;20.60
11240;BMP180;5677;48.488;13.436;2023-08-30T05:10:03;97041.00;;;20.60
11240;BMP180;5677;48.488;13.436;2023-08-30T05:12:30;97045.00;;;20.50
11240;BMP180;5677;48.488;13.436;2023-08-30T05:14:57;97046.00;;;20.60
11240;BMP180;5677;48.488;13.436;2023-08-30T05:17:26;97045.00;;;20.60
11240;BMP180;5677;48.488;13.436;2023-08-30T05:19:54;97039.00;;;20.50
11240;BMP180;5677;48.488;13.436;2023-08-30T05:22:21;97045.00;;;20.60
11240;BMP180;5677;48.488;13.436;2023-08-30T05:24:49;97038.00;;;20.50
11240;BMP180;5677;48.488;13.436;2023-08-30T05:27:16;97042.00;;;20.60
11240;BMP180;5677;48.488;13.436;2023-08-30T05:29:43;97039.00;;;20.60
11240;BMP180;5677;48.488;13.436;2023-08-30T05:32:10;97036.00;;;20.60
11240;BMP180;5677;48.488;13.436;2023-08-30T05:34:37;97040.00;;;20.60
11240;BMP180;5677;48.488;13.436;2023-08-30T05:37:04;97047.00;;;20.60
11240;BMP180;5677;48.488;13.436;2023-08-30T05:39:31;97038.00;;;20.50
11240;BMP180;5677;48.488;13.436;2023-08-30T05:41:59;97036.00;;;20.60
11240;BMP180;5677;48.488;13.436;2023-08-30T05:44:26;97037.00;;;20.60
11240;BMP180;5677;48.488;13.436;2023-08-30T05:46:53;97035.00;;;20.60
11240;BMP180;5677;48.488;13.436;2023-08-30T05:49:20;97041.00;;;20.60
11240;BMP180;5677;48.488;13.436;2023-08-30T05:51:47;97032.00;;;20.60
11240;BMP180;5677;48.488;13.436;2023-08-30T05:54:14;97034.00;;;20.50
11240;BMP180;5677;48.488;13.436;2023-08-30T05:56:41;97031.00;;;20.60
11240;BMP180;5677;48.488;13.436;2023-08-30T05:59:10;97037.00;;;20.60
11240;BMP180;5677;48.488;13.436;2023-08-30T06:01:36;97043.00;;;20.60
11240;BMP180;5677;48.488;13.436;2023-08-30T06:04:04;97040.00;;;20.60
11240;BMP180;5677;48.488;13.436;2023-08-30T06:06:31;97049.00;;;20.60
11240;BMP180;5677;48.488;13.436;2023-08-30T06:08:58;97051.00;;;20.60
11240;BMP180;5677;48.488;13.436;2023-08-30T06:11:25;97048.00;;;20.60
11240;BMP180;5677;48.488;13.436;2023-08-30T06:13:53;97051.00;;;20.60
11240;BMP180;5677;48.488;13.436;2023-08-30T06:16:21;97060.00;;;20.60
11240;BMP180;5677;48.488;13.436;2023-08-30T06:18:48;97057.00;;;20.60
11240;BMP180;5677;48.488;13.436;2023-08-30T06:21:15;97061.00;;;20.60
11240;BMP180;5677;48.488;13.436;2023-08-30T06:23:42;97059.00;;;20.60
11240;BMP180;5677;48.488;13.436;2023-08-30T06:26:09;97064.00;;;20.60
11240;BMP180;5677;48.488;13.436;2023-08-30T06:28:36;97062.00;;;20.60
11240;BMP180;5677;48.488;13.436;2023-08-30T06:31:03;97068.00;;;20.60
11240;BMP180;5677;48.488;13.436;2023-08-30T06:33:32;97061.00;;;20.60
11240;BMP180;5677;48.488;13.436;2023-08-30T06:35:58;97059.00;;;20.60
11240;BMP180;5677;48.488;13.436;2023-08-30T06:38:26;97061.00;;;20.50
11240;BMP180;5677;48.488;13.436;2023-08-30T06:40:52;97065.00;;;20.50
11240;BMP180;5677;48.488;13.436;2023-08-30T06:43:20;97070.00;;;20.60
11240;BMP180;5677;48.488;13.436;2023-08-30T06:45:47;97072.00;;;20.50
11240;BMP180;5677;48.488;13.436;2023-08-30T06:48:14;97072.00;;;20.50
11240;BMP180;5677;48.488;13.436;2023-08-30T06:50:42;97072.00;;;20.50
11240;BMP180;5677;48.488;13.436;2023-08-30T06:53:09;97073.00;;;20.50
11240;BMP180;5677;48.488;13.436;2023-08-30T06:55:36;97070.00;;;20.40
11240;BMP180;5677;48.488;13.436;2023-08-30T06:58:04;97076.00;;;20.40
11240;BMP180;5677;48.488;13.436;2023-08-30T07:00:31;97077.00;;;20.40
11240;BMP180;5677;48.488;13.436;2023-08-30T07:02:59;97069.00;;;20.40
11240;BMP180;5677;48.488;13.436;2023-08-30T07:05:26;97066.00;;;20.40
11240;BMP180;5677;48.488;13.436;2023-08-30T07:07:54;97063.00;;;20.50
11240;BMP180;5677;48.488;13.436;2023-08-30T07:10:21;97068.00;;;20.50
11240;BMP180;5677;48.488;13.436;2023-08-30T07:12:49;97060.00;;;20.50
11240;BMP180;5677;48.488;13.436;2023-08-30T07:15:15;97054.00;;;20.50
11240;BMP180;5677;48.488;13.436;2023-08-30T07:17:43;97050.00;;;20.50
11240;BMP180;5677;48.488;13.436;2023-08-30T07:20:11;97057.00;;;20.50
11240;BMP180;5677;48.488;13.436;2023-08-30T07:22:38;97042.00;;;20.50
11240;BMP180;5677;48.488;13.436;2023-08-30T07:25:07;97052.00;;;20.60
11240;BMP180;5677;48.488;13.436;2023-08-30T07:27:36;97057.00;;;20.60
11240;BMP180;5677;48.488;13.436;2023-08-30T07:30:04;97051.00;;;20.60
11240;BMP180;5677;48.488;13.436;2023-08-30T07:32:31;97054.00;;;20.70
11240;BMP180;5677;48.488;13.436;2023-08-30T07:34:58;97059.00;;;20.70
11240;BMP180;5677;48.488;13.436;2023-08-30T07:37:25;97057.00;;;20.70
11240;BMP180;5677;48.488;13.436;2023-08-30T07:39:52;97053.00;;;20.70
11240;BMP180;5677;48.488;13.436;2023-08-30T07:42:21;97060.00;;;20.70
11240;BMP180;5677;48.488;13.436;2023-08-30T07:44:49;97063.00;;;20.80
11240;BMP180;5677;48.488;13.436;2023-08-30T07:47:16;97063.00;;;20.80
11240;BMP180;5677;48.488;13.436;2023-08-30T07:49:43;97062.00;;;20.80
11240;BMP180;5677;48.488;13.436;2023-08-30T07:52:10;97063.00;;;20.80
11240;BMP180;5677;48.488;13.436;2023-08-30T07:54:39;97066.00;;;20.80
11240;BMP180;5677;48.488;13.436;2023-08-30T07:57:07;97072.00;;;20.80
11240;BMP180;5677;48.488;13.436;2023-08-30T07:59:36;97072.00;;;20.80
11240;BMP180;5677;48.488;13.436;2023-08-30T08:02:04;97076.00;;;20.80
11240;BMP180;5677;48.488;13.436;2023-08-30T08:04:33;97078.00;;;20.80
11240;BMP180;5677;48.488;13.436;2023-08-30T08:07:00;97071.00;;;20.80
11240;BMP180;5677;48.488;13.436;2023-08-30T08:09:27;97071.00;;;20.80
11240;BMP180;5677;48.488;13.436;2023-08-30T08:11:55;97075.00;;;20.70
11240;BMP180;5677;48.488;13.436;2023-08-30T08:14:22;97077.00;;;20.70
11240;BMP180;5677;48.488;13.436;2023-08-30T08:16:50;97081.00;;;20.70
11240;BMP180;5677;48.488;13.436;2023-08-30T08:19:17;97077.00;;;20.70
11240;BMP180;5677;48.488;13.436;2023-08-30T08:21:45;97083.00;;;20.70
11240;BMP180;5677;48.488;13.436;2023-08-30T08:24:12;97086.00;;;20.70
11240;BMP180;5677;48.488;13.436;2023-08-30T08:26:39;97089.00;;;20.70
11240;BMP180;5677;48.488;13.436;2023-08-30T08:29:06;97093.00;;;20.70
11240;BMP180;5677;48.488;13.436;2023-08-30T08:31:33;97098.00;;;20.70
11240;BMP180;5677;48.488;13.436;2023-08-30T08:34:10;97091.00;;;20.70
11240;BMP180;5677;48.488;13.436;2023-08-30T08:36:38;97102.00;;;20.70
11240;BMP180;5677;48.488;13.436;2023-08-30T08:39:05;97101.00;;;20.70
11240;BMP180;5677;48.488;13.436;2023-08-30T08:41:39;97103.00;;;20.70
11240;BMP180;5677;48.488;13.436;2023-08-30T08:44:07;97102.00;;;20.80
11240;BMP180;5677;48.488;13.436;2023-08-30T08:46:35;97099.00;;;20.80
11240;BMP180;5677;48.488;13.436;2023-08-30T08:49:11;97104.00;;;20.80
11240;BMP180;5677;48.488;13.436;2023-08-30T08:51:39;97105.00;;;20.70
11240;BMP180;5677;48.488;13.436;2023-08-30T08:54:07;97105.00;;;20.70
11240;BMP180;5677;48.488;13.436;2023-08-30T08:56:37;97103.00;;;20.60
11240;BMP180;5677;48.488;13.436;2023-08-30T08:59:04;97109.00;;;20.50
11240;BMP180;5677;48.488;13.436;2023-08-30T09:01:34;97109.00;;;20.40
11240;BMP180;5677;48.488;13.436;2023-08-30T09:04:04;97112.00;;;20.40
11240;BMP180;5677;48.488;13.436;2023-08-30T09:06:34;97112.00;;;20.40
11240;BMP180;5677;48.488;13.436;2023-08-30T09:09:02;97121.00;;;20.50
11240;BMP180;5677;48.488;13.436;2023-08-30T09:11:30;97118.00;;;20.50
11240;BMP180;5677;48.488;13.436;2023-08-30T09:13:58;97120.00;;;20.50
11240;BMP180;5677;48.488;13.436;2023-08-30T09:16:25;97118.00;;;20.50
11240;BMP180;5677;48.488;13.436;2023-08-30T09:18:59;97127.00;;;20.50
11240;BMP180;5677;48.488;13.436;2023-08-30T09:21:27;97129.00;;;20.50
11240;BMP180;5677;48.488;13.436;2023-08-30T09:23:59;97120.00;;;20.60
11240;BMP180;5677;48.488;13.436;2023-08-30T09:26:27;97126.00;;;20.60
11240;BMP180;5677;48.488;13.436;2023-08-30T09:28:55;97129.00;;;20.60
11240;BMP180;5677;48.488;13.436;2023-08-30T09:31:22;97125.00;;;20.60
11240;BMP180;5677;48.488;13.436;2023-08-30T09:33:49;97124.00;;;20.60
11240;BMP180;5677;48.488;13.436;2023-08-30T09:36:19;97125.00;;;20.60
11240;BMP180;5677;48.488;13.436;2023-08-30T09:38:49;97119.00;;;20.60
11240;BMP180;5677;48.488;13.436;2023-08-30T09:41:17;97118.00;;;20.60
11240;BMP180;5677;48.488;13.436;2023-08-30T09:43:45;97118.00;;;20.60
11240;BMP180;5677;48.488;13.436;2023-08-30T09:46:13;97114.00;;;20.60
11240;BMP180;5677;48.488;13.436;2023-08-30T09:48:41;97115.00;;;20.60
11240;BMP180;5677;48.488;13.436;2023-08-30T09:51:08;97111.00;;;20.60
11240;BMP180;5677;48.488;13.436;2023-08-30T09:53:42;97120.00;;;20.70
11240;BMP180;5677;48.488;13.436;2023-08-30T09:56:13;97113.00;;;20.70
11240;BMP180;5677;48.488;13.436;2023-08-30T09:58:43;97113.00;;;20.70
11240;BMP180;5677;48.488;13.436;2023-08-30T10:01:11;97112.00;;;20.70
11240;BMP180;5677;48.488;13.436;2023-08-30T10:03:39;97107.00;;;20.60
11240;BMP180;5677;48.488;13.436;2023-08-30T10:06:07;97109.00;;;20.60
11240;BMP180;5677;48.488;13.436;2023-08-30T10:08:34;97107.00;;;20.50
11240;BMP180;5677;48.488;13.436;2023-08-30T10:11:05;97097.00;;;20.50
11240;BMP180;5677;48.488;13.436;2023-08-30T10:13:35;97099.00;;;20.50
11240;BMP180;5677;48.488;13.436;2023-08-30T10:16:05;97089.00;;;20.50
11240;BMP180;5677;48.488;13.436;2023-08-30T10:18:32;97096.00;;;20.40
11240;BMP180;5677;48.488;13.436;2023-08-30T10:21:07;97090.00;;;20.30
11240;BMP180;5677;48.488;13.436;2023-08-30T10:23:37;97083.00;;;20.20
11240;BMP180;5677;48.488;13.436;2023-08-30T10:26:07;97083.00;;;20.20
11240;BMP180;5677;48.488;13.436;2023-08-30T10:28:35;97079.00;;;20.20
11240;BMP180;5677;48.488;13.436;2023-08-30T10:31:04;97081.00;;;20.20
11240;BMP180;5677;48.488;13.436;2023-08-30T10:33:31;97079.00;;;20.30
11240;BMP180;5677;48.488;13.436;2023-08-30T10:36:05;97076.00;;;20.30
11240;BMP180;5677;48.488;13.436;2023-08-30T10:38:33;97075.00;;;20.30
11240;BMP180;5677;48.488;13.436;2023-08-30T10:41:07;97071.00;;;20.40
11240;BMP180;5677;48.488;13.436;2023-08-30T10:43:36;97070.00;;;20.40
11240;BMP180;5677;48.488;13.436;2023-08-30T10:46:05;97068.00;;;20.30
11240;BMP180;5677;48.488;13.436;2023-08-30T10:48:38;97065.00;;;20.30
11240;BMP180;5677;48.488;13.436;2023-08-30T10:51:20;97066.00;;;20.30
11240;BMP180;5677;48.488;13.436;2023-08-30T10:54:12;97073.00;;;20.30
11240;BMP180;5677;48.488;13.436;2023-08-30T10:56:47;97074.00;;;20.40
11240;BMP180;5677;48.488;13.436;2023-08-30T10:59:19;97080.00;;;20.40
11240;BMP180;5677;48.488;13.436;2023-08-30T11:01:48;97074.00;;;20.40
11240;BMP180;5677;48.488;13.436;2023-08-30T11:04:17;97073.00;;;20.50
11240;BMP180;5677;48.488;13.436;2023-08-30T11:06:45;97069.00;;;20.50
11240;BMP180;5677;48.488;13.436;2023-08-30T11:09:13;97072.00;;;20.50
11240;BMP180;5677;48.488;13.436;2023-08-30T11:11:44;97073.00;;;20.50
11240;BMP180;5677;48.488;13.436;2023-08-30T11:14:11;97072.00;;;20.50
11240;BMP180;5677;48.488;13.436;2023-08-30T11:16:39;97078.00;;;20.50
11240;BMP180;5677;48.488;13.436;2023-08-30T11:19:09;97076.00;;;20.50
11240;BMP180;5677;48.488;13.436;2023-08-30T11:21:39;97075.00;;;20.50
11240;BMP180;5677;48.488;13.436;2023-08-30T11:24:07;97067.00;;;20.60
11240;BMP180;5677;48.488;13.436;2023-08-30T11:26:34;97063.00;;;20.60
11240;BMP180;5677;48.488;13.436;2023-08-30T11:29:05;97069.00;;;20.60
11240;BMP180;5677;48.488;13.436;2023-08-30T11:31:32;97068.00;;;20.60
11240;BMP180;5677;48.488;13.436;2023-08-30T11:34:00;97069.00;;;20.60
11240;BMP180;5677;48.488;13.436;2023-08-30T11:36:31;97070.00;;;20.60
11240;BMP180;5677;48.488;13.436;2023-08-30T11:38:59;97073.00;;;20.60
11240;BMP180;5677;48.488;13.436;2023-08-30T11:41:26;97069.00;;;20.60
11240;BMP180;5677;48.488;13.436;2023-08-30T11:43:54;97065.00;;;20.60
11240;BMP180;5677;48.488;13.436;2023-08-30T11:46:21;97067.00;;;20.60
11240;BMP180;5677;48.488;13.436;2023-08-30T11:48:51;97065.00;;;20.60
11240;BMP180;5677;48.488;13.436;2023-08-30T11:51:19;97059.00;;;20.60
11240;BMP180;5677;48.488;13.436;2023-08-30T11:53:48;97059.00;;;20.60
11240;BMP180;5677;48.488;13.436;2023-08-30T11:56:16;97069.00;;;20.70
11240;BMP180;5677;48.488;13.436;2023-08-30T11:58:43;97066.00;;;20.60
11240;BMP180;5677;48.488;13.436;2023-08-30T12:01:11;97063.00;;;20.70
11240;BMP180;5677;48.488;13.436;2023-08-30T12:03:39;97061.00;;;20.70
11240;BMP180;5677;48.488;13.436;2023-08-30T12:06:10;97062.00;;;20.70
11240;BMP180;5677;48.488;13.436;2023-08-30T12:08:38;97057.00;;;20.70
11240;BMP180;5677;48.488;13.436;2023-08-30T12:11:17;97052.00;;;20.70
11240;BMP180;5677;48.488;13.436;2023-08-30T12:13:45;97048.00;;;20.70
11240;BMP180;5677;48.488;13.436;2023-08-30T12:16:16;97048.00;;;20.70
11240;BMP180;5677;48.488;13.436;2023-08-30T12:18:43;97046.00;;;20.70
11240;BMP180;5677;48.488;13.436;2023-08-30T12:21:13;97041.00;;;20.70
11240;BMP180;5677;48.488;13.436;2023-08-30T12:23:40;97051.00;;;20.70
11240;BMP180;5677;48.488;13.436;2023-08-30T12:26:10;97045.00;;;20.70
11240;BMP180;5677;48.488;13.436;2023-08-30T12:28:39;97042.00;;;20.70
11240;BMP180;5677;48.488;13.436;2023-08-30T12:31:07;97041.00;;;20.70
11240;BMP180;5677;48.488;13.436;2023-08-30T12:33:34;97042.00;;;20.70
11240;BMP180;5677;48.488;13.436;2023-08-30T12:36:01;97033.00;;;20.80
11240;BMP180;5677;48.488;13.436;2023-08-30T12:38:29;97033.00;;;20.80
11240;BMP180;5677;48.488;13.436;2023-08-30T12:40:57;97034.00;;;20.80
11240;BMP180;5677;48.488;13.436;2023-08-30T12:43:25;97021.00;;;20.80
11240;BMP180;5677;48.488;13.436;2023-08-30T12:45:52;97026.00;;;20.80
11240;BMP180;5677;48.488;13.436;2023-08-30T12:48:19;97025.00;;;20.80
11240;BMP180;5677;48.488;13.436;2023-08-30T12:50:47;97019.00;;;20.80
11240;BMP180;5677;48.488;13.436;2023-08-30T12:53:15;97019.00;;;20.80
11240;BMP180;5677;48.488;13.436;2023-08-30T12:55:43;97016.00;;;20.80
11240;BMP180;5677;48.488;13.436;2023-08-30T12:58:10;97013.00;;;20.80
11240;BMP180;5677;48.488;13.436;2023-08-30T13:00:41;97017.00;;;20.80
11240;BMP180;5677;48.488;13.436;2023-08-30T13:03:08;97010.00;;;20.80
11240;BMP180;5677;48.488;13.436;2023-08-30T13:05:35;97004.00;;;20.80
11240;BMP180;5677;48.488;13.436;2023-08-30T13:08:02;97016.00;;;20.80
11240;BMP180;5677;48.488;13.436;2023-08-30T13:10:29;97008.00;;;20.80
11240;BMP180;5677;48.488;13.436;2023-08-30T13:12:56;97011.00;;;20.80
11240;BMP180;5677;48.488;13.436;2023-08-30T13:15:23;97015.00;;;20.80
11240;BMP180;5677;48.488;13.436;2023-08-30T13:17:52;97009.00;;;20.80
11240;BMP180;5677;48.488;13.436;2023-08-30T13:20:19;97014.00;;;20.80
11240;BMP180;5677;48.488;13.436;2023-08-30T13:22:46;97009.00;;;20.80
11240;BMP180;5677;48.488;13.436;2023-08-30T13:25:13;97010.00;;;20.80
11240;BMP180;5677;48.488;13.436;2023-08-30T13:27:40;97013.00;;;20.80
11240;BMP180;5677;48.488;13.436;2023-08-30T13:30:07;97012.00;;;20.70
11240;BMP180;5677;48.488;13.436;2023-08-30T13:32:33;97013.00;;;20.70
11240;BMP180;5677;48.488;13.436;2023-08-30T13:35:02;97008.00;;;20.70
11240;BMP180;5677;48.488;13.436;2023-08-30T13:37:29;97011.00;;;20.70
11240;BMP180;5677;48.488;13.436;2023-08-30T13:39:56;97014.00;;;20.60
11240;BMP180;5677;48.488;13.436;2023-08-30T13:42:23;97015.00;;;20.60
11240;BMP180;5677;48.488;13.436;2023-08-30T13:44:53;97021.00;;;20.50
11240;BMP180;5677;48.488;13.436;2023-08-30T13:47:20;97018.00;;;20.50
11240;BMP180;5677;48.488;13.436;2023-08-30T13:49:47;97027.00;;;20.40
11240;BMP180;5677;48.488;13.436;2023-08-30T13:52:15;97019.00;;;20.40
11240;BMP180;5677;48.488;13.436;2023-08-30T13:54:42;97018.00;;;20.30
11240;BMP180;5677;48.488;13.436;2023-08-30T13:57:09;97018.00;;;20.30
11240;BMP180;5677;48.488;13.436;2023-08-30T13:59:36;97020.00;;;20.30
11240;BMP180;5677;48.488;13.436;2023-08-30T14:02:04;97017.00;;;20.30
11240;BMP180;5677;48.488;13.436;2023-08-30T14:04:31;97021.00;;;20.30
11240;BMP180;5677;48.488;13.436;2023-08-30T14:06:59;97023.00;;;20.30
11240;BMP180;5677;48.488;13.436;2023-08-30T14:09:28;97016.00;;;20.30
11240;BMP180;5677;48.488;13.436;2023-08-30T14:11:56;97024.00;;;20.30
11240;BMP180;5677;48.488;13.436;2023-08-30T14:14:23;97018.00;;;20.30